sensor_id;sensor_type;location;lat;lon;timestamp;P1;durP1;ratioP1;P2;durP2;ratioP2
43682;SDS011;29285;52.128;21.060;2022-12-29T00:03:54;7.40;;;4.62;;
43682;SDS011;29285;52.128;21.060;2022-12-29T00:08:56;9.43;;;4.75;;
43682;SDS011;29285;52.128;21.060;2022-12-29T00:13:57;7.10;;;4.03;;
43682;SDS011;29285;52.128;21.060;2022-12-29T00:19:17;7.03;;;4.85;;
43682;SDS011;29285;52.128;21.060;2022-12-29T00:24:37;10.38;;;5.40;;
43682;SDS011;29285;52.128;21.060;2022-12-29T00:29:57;7.95;;;4.50;;
43682;SDS011;29285;52.128;21.060;2022-12-29T00:35:30;9.03;;;4.47;;
43682;SDS011;29285;52.128;21.060;2022-12-29T00:40:36;9.63;;;6.12;;
43682;SDS011;29285;52.128;21.060;2022-12-29T00:45:56;10.13;;;5.40;;
43682;SDS011;29285;52.128;21.060;2022-12-29T00:50:57;7.90;;;4.83;;
43682;SDS011;29285;52.128;21.060;2022-12-29T00:55:58;6.22;;;4.03;;
43682;SDS011;29285;52.128;21.060;2022-12-29T01:01:01;9.20;;;4.58;;
43682;SDS011;29285;52.128;21.060;2022-12-29T01:06:08;6.83;;;3.62;;
43682;SDS011;29285;52.128;21.060;2022-12-29T01:11:11;7.60;;;4.42;;
43682;SDS011;29285;52.128;21.060;2022-12-29T01:16:13;7.30;;;3.77;;
43682;SDS011;29285;52.128;21.060;2022-12-29T01:21:14;5.83;;;3.62;;
43682;SDS011;29285;52.128;21.060;2022-12-29T01:26:16;6.87;;;4.05;;
43682;SDS011;29285;52.128;21.060;2022-12-29T01:31:18;7.45;;;3.75;;
43682;SDS011;29285;52.128;21.060;2022-12-29T01:36:20;6.33;;;3.70;;
43682;SDS011;29285;52.128;21.060;2022-12-29T01:41:22;7.10;;;4.10;;
43682;SDS011;29285;52.128;21.060;2022-12-29T01:46:39;5.92;;;3.77;;
43682;SDS011;29285;52.128;21.060;2022-12-29T01:56:54;5.53;;;3.10;;
43682;SDS011;29285;52.128;21.060;2022-12-29T02:01:58;5.72;;;3.33;;
43682;SDS011;29285;52.128;21.060;2022-12-29T02:07:01;7.75;;;4.03;;
43682;SDS011;29285;52.128;21.060;2022-12-29T02:12:10;7.03;;;4.17;;
43682;SDS011;29285;52.128;21.060;2022-12-29T02:22:27;6.20;;;3.80;;
43682;SDS011;29285;52.128;21.060;2022-12-29T02:28:04;5.28;;;3.27;;
43682;SDS011;29285;52.128;21.060;2022-12-29T02:44:25;6.17;;;3.15;;
43682;SDS011;29285;52.128;21.060;2022-12-29T02:49:44;7.45;;;3.60;;
43682;SDS011;29285;52.128;21.060;2022-12-29T02:54:50;5.87;;;2.90;;
43682;SDS011;29285;52.128;21.060;2022-12-29T02:59:56;6.33;;;3.40;;
43682;SDS011;29285;52.128;21.060;2022-12-29T03:05:05;4.53;;;2.65;;
43682;SDS011;29285;52.128;21.060;2022-12-29T03:10:24;4.60;;;2.65;;
43682;SDS011;29285;52.128;21.060;2022-12-29T03:15:46;5.92;;;2.98;;
43682;SDS011;29285;52.128;21.060;2022-12-29T03:21:05;5.33;;;3.37;;
43682;SDS011;29285;52.128;21.060;2022-12-29T03:26:14;6.90;;;3.40;;
43682;SDS011;29285;52.128;21.060;2022-12-29T03:31:20;6.27;;;3.20;;
43682;SDS011;29285;52.128;21.060;2022-12-29T03:36:26;6.00;;;3.75;;
43682;SDS011;29285;52.128;21.060;2022-12-29T03:41:33;6.42;;;3.33;;
43682;SDS011;29285;52.128;21.060;2022-12-29T03:46:36;5.95;;;3.10;;
43682;SDS011;29285;52.128;21.060;2022-12-29T03:51:37;5.62;;;3.60;;
43682;SDS011;29285;52.128;21.060;2022-12-29T03:56:39;7.08;;;3.20;;
43682;SDS011;29285;52.128;21.060;2022-12-29T04:01:40;7.92;;;3.90;;
43682;SDS011;29285;52.128;21.060;2022-12-29T04:06:42;8.10;;;4.12;;
43682;SDS011;29285;52.128;21.060;2022-12-29T04:11:43;6.67;;;3.60;;
43682;SDS011;29285;52.128;21.060;2022-12-29T04:16:44;8.55;;;4.10;;
43682;SDS011;29285;52.128;21.060;2022-12-29T04:21:45;8.75;;;4.67;;
43682;SDS011;29285;52.128;21.060;2022-12-29T04:26:47;11.28;;;5.17;;
43682;SDS011;29285;52.128;21.060;2022-12-29T04:31:48;10.40;;;5.40;;
43682;SDS011;29285;52.128;21.060;2022-12-29T04:36:49;10.32;;;4.75;;
43682;SDS011;29285;52.128;21.060;2022-12-29T04:41:51;9.55;;;5.40;;
43682;SDS011;29285;52.128;21.060;2022-12-29T04:46:53;8.20;;;5.33;;
43682;SDS011;29285;52.128;21.060;2022-12-29T04:51:54;11.55;;;5.87;;
43682;SDS011;29285;52.128;21.060;2022-12-29T04:56:55;8.85;;;4.80;;
43682;SDS011;29285;52.128;21.060;2022-12-29T05:01:57;10.68;;;6.03;;
43682;SDS011;29285;52.128;21.060;2022-12-29T05:06:58;9.00;;;5.22;;
43682;SDS011;29285;52.128;21.060;2022-12-29T05:11:59;8.95;;;5.10;;
43682;SDS011;29285;52.128;21.060;2022-12-29T05:17:01;11.38;;;5.37;;
43682;SDS011;29285;52.128;21.060;2022-12-29T05:22:02;8.53;;;4.85;;
43682;SDS011;29285;52.128;21.060;2022-12-29T05:27:03;9.20;;;5.08;;
43682;SDS011;29285;52.128;21.060;2022-12-29T05:32:05;11.53;;;5.05;;
43682;SDS011;29285;52.128;21.060;2022-12-29T05:37:06;11.40;;;5.90;;
43682;SDS011;29285;52.128;21.060;2022-12-29T05:42:08;7.87;;;4.95;;
43682;SDS011;29285;52.128;21.060;2022-12-29T05:47:09;9.10;;;5.60;;
43682;SDS011;29285;52.128;21.060;2022-12-29T05:52:10;11.25;;;5.25;;
43682;SDS011;29285;52.128;21.060;2022-12-29T05:57:12;8.55;;;4.85;;
43682;SDS011;29285;52.128;21.060;2022-12-29T06:02:13;7.60;;;4.72;;
43682;SDS011;29285;52.128;21.060;2022-12-29T06:07:14;9.90;;;4.70;;
43682;SDS011;29285;52.128;21.060;2022-12-29T06:12:16;10.35;;;4.95;;
43682;SDS011;29285;52.128;21.060;2022-12-29T06:17:17;9.23;;;4.75;;
43682;SDS011;29285;52.128;21.060;2022-12-29T06:22:19;9.35;;;4.95;;
43682;SDS011;29285;52.128;21.060;2022-12-29T06:27:20;8.38;;;4.65;;
43682;SDS011;29285;52.128;21.060;2022-12-29T06:32:22;8.48;;;4.58;;
43682;SDS011;29285;52.128;21.060;2022-12-29T06:37:23;9.78;;;5.00;;
43682;SDS011;29285;52.128;21.060;2022-12-29T06:42:24;7.65;;;4.50;;
43682;SDS011;29285;52.128;21.060;2022-12-29T06:47:26;11.85;;;5.00;;
43682;SDS011;29285;52.128;21.060;2022-12-29T06:52:27;9.15;;;4.35;;
43682;SDS011;29285;52.128;21.060;2022-12-29T06:57:29;10.82;;;4.17;;
43682;SDS011;29285;52.128;21.060;2022-12-29T07:02:30;8.90;;;4.72;;
43682;SDS011;29285;52.128;21.060;2022-12-29T07:07:31;7.87;;;4.40;;
43682;SDS011;29285;52.128;21.060;2022-12-29T07:12:33;6.87;;;4.28;;
43682;SDS011;29285;52.128;21.060;2022-12-29T07:17:34;9.05;;;5.10;;
43682;SDS011;29285;52.128;21.060;2022-12-29T07:22:35;9.95;;;4.20;;
43682;SDS011;29285;52.128;21.060;2022-12-29T07:32:40;7.08;;;4.00;;
43682;SDS011;29285;52.128;21.060;2022-12-29T07:37:42;9.73;;;5.17;;
43682;SDS011;29285;52.128;21.060;2022-12-29T07:42:43;9.60;;;4.42;;
43682;SDS011;29285;52.128;21.060;2022-12-29T07:47:47;7.10;;;4.28;;
43682;SDS011;29285;52.128;21.060;2022-12-29T07:52:49;6.95;;;4.47;;
43682;SDS011;29285;52.128;21.060;2022-12-29T07:57:54;8.50;;;3.75;;
43682;SDS011;29285;52.128;21.060;2022-12-29T08:02:57;6.95;;;4.12;;
43682;SDS011;29285;52.128;21.060;2022-12-29T08:07:58;6.62;;;3.72;;
43682;SDS011;29285;52.128;21.060;2022-12-29T08:12:59;8.18;;;4.45;;
43682;SDS011;29285;52.128;21.060;2022-12-29T08:18:01;6.97;;;4.20;;
43682;SDS011;29285;52.128;21.060;2022-12-29T08:23:03;8.93;;;4.72;;
43682;SDS011;29285;52.128;21.060;2022-12-29T08:28:05;7.22;;;3.80;;
43682;SDS011;29285;52.128;21.060;2022-12-29T08:33:06;6.95;;;3.30;;
43682;SDS011;29285;52.128;21.060;2022-12-29T08:38:07;9.15;;;5.37;;
43682;SDS011;29285;52.128;21.060;2022-12-29T08:43:11;8.68;;;3.62;;
43682;SDS011;29285;52.128;21.060;2022-12-29T08:48:12;6.55;;;3.92;;
43682;SDS011;29285;52.128;21.060;2022-12-29T08:53:13;6.80;;;4.08;;
43682;SDS011;29285;52.128;21.060;2022-12-29T08:58:15;6.17;;;4.00;;
43682;SDS011;29285;52.128;21.060;2022-12-29T09:03:17;6.45;;;3.45;;
43682;SDS011;29285;52.128;21.060;2022-12-29T09:08:19;8.08;;;3.85;;
43682;SDS011;29285;52.128;21.060;2022-12-29T09:13:21;8.43;;;3.58;;
43682;SDS011;29285;52.128;21.060;2022-12-29T09:18:22;7.00;;;3.42;;
43682;SDS011;29285;52.128;21.060;2022-12-29T09:23:24;8.90;;;4.20;;
43682;SDS011;29285;52.128;21.060;2022-12-29T09:28:25;6.40;;;4.12;;
43682;SDS011;29285;52.128;21.060;2022-12-29T09:33:28;5.67;;;3.47;;
43682;SDS011;29285;52.128;21.060;2022-12-29T09:38:30;6.58;;;3.77;;
43682;SDS011;29285;52.128;21.060;2022-12-29T09:43:47;7.08;;;3.90;;
43682;SDS011;29285;52.128;21.060;2022-12-29T09:49:07;7.15;;;4.50;;
43682;SDS011;29285;52.128;21.060;2022-12-29T09:54:53;7.47;;;3.58;;
43682;SDS011;29285;52.128;21.060;2022-12-29T10:00:14;11.03;;;4.08;;
43682;SDS011;29285;52.128;21.060;2022-12-29T10:05:27;8.13;;;3.27;;
43682;SDS011;29285;52.128;21.060;2022-12-29T10:10:43;7.47;;;3.75;;
43682;SDS011;29285;52.128;21.060;2022-12-29T10:16:09;6.37;;;3.90;;
43682;SDS011;29285;52.128;21.060;2022-12-29T10:21:43;6.60;;;4.55;;
43682;SDS011;29285;52.128;21.060;2022-12-29T10:27:02;6.05;;;3.60;;
43682;SDS011;29285;52.128;21.060;2022-12-29T10:42:43;7.50;;;4.37;;
43682;SDS011;29285;52.128;21.060;2022-12-29T10:47:52;8.55;;;4.33;;
43682;SDS011;29285;52.128;21.060;2022-12-29T10:52:58;9.75;;;4.55;;
43682;SDS011;29285;52.128;21.060;2022-12-29T10:58:06;8.23;;;5.33;;
43682;SDS011;29285;52.128;21.060;2022-12-29T11:08:50;7.28;;;4.40;;
43682;SDS011;29285;52.128;21.060;2022-12-29T11:14:18;7.85;;;4.25;;
43682;SDS011;29285;52.128;21.060;2022-12-29T11:19:27;7.55;;;4.53;;
43682;SDS011;29285;52.128;21.060;2022-12-29T11:24:31;7.50;;;4.10;;
43682;SDS011;29285;52.128;21.060;2022-12-29T11:29:38;6.20;;;4.00;;
43682;SDS011;29285;52.128;21.060;2022-12-29T11:34:42;8.10;;;4.08;;
43682;SDS011;29285;52.128;21.060;2022-12-29T11:40:01;9.58;;;4.67;;
43682;SDS011;29285;52.128;21.060;2022-12-29T11:45:06;7.03;;;3.77;;
43682;SDS011;29285;52.128;21.060;2022-12-29T11:50:26;7.37;;;4.30;;
43682;SDS011;29285;52.128;21.060;2022-12-29T11:55:30;8.88;;;3.87;;
43682;SDS011;29285;52.128;21.060;2022-12-29T12:00:34;8.05;;;4.95;;
43682;SDS011;29285;52.128;21.060;2022-12-29T12:05:39;7.12;;;3.72;;
43682;SDS011;29285;52.128;21.060;2022-12-29T12:11:01;8.00;;;4.42;;
43682;SDS011;29285;52.128;21.060;2022-12-29T12:26:43;8.23;;;4.75;;
43682;SDS011;29285;52.128;21.060;2022-12-29T12:31:56;8.33;;;4.45;;
43682;SDS011;29285;52.128;21.060;2022-12-29T13:26:44;6.90;;;3.90;;
43682;SDS011;29285;52.128;21.060;2022-12-29T13:37:52;6.08;;;4.00;;
43682;SDS011;29285;52.128;21.060;2022-12-29T13:43:13;7.15;;;4.37;;
43682;SDS011;29285;52.128;21.060;2022-12-29T13:48:22;7.47;;;4.42;;
43682;SDS011;29285;52.128;21.060;2022-12-29T13:59:34;9.50;;;5.42;;
43682;SDS011;29285;52.128;21.060;2022-12-29T14:04:41;8.78;;;4.00;;
43682;SDS011;29285;52.128;21.060;2022-12-29T14:09:47;6.72;;;4.35;;
43682;SDS011;29285;52.128;21.060;2022-12-29T14:14:51;8.65;;;4.85;;
43682;SDS011;29285;52.128;21.060;2022-12-29T14:19:53;6.87;;;4.20;;
43682;SDS011;29285;52.128;21.060;2022-12-29T14:24:55;9.10;;;4.70;;
43682;SDS011;29285;52.128;21.060;2022-12-29T14:29:56;7.12;;;4.28;;
43682;SDS011;29285;52.128;21.060;2022-12-29T14:34:59;11.12;;;4.92;;
43682;SDS011;29285;52.128;21.060;2022-12-29T14:45:27;8.40;;;5.62;;
43682;SDS011;29285;52.128;21.060;2022-12-29T14:50:40;8.78;;;5.30;;
43682;SDS011;29285;52.128;21.060;2022-12-29T14:55:45;6.85;;;4.15;;
43682;SDS011;29285;52.128;21.060;2022-12-29T15:00:50;8.75;;;4.47;;
43682;SDS011;29285;52.128;21.060;2022-12-29T15:05:52;8.83;;;4.67;;
43682;SDS011;29285;52.128;21.060;2022-12-29T15:11:01;8.03;;;4.65;;
43682;SDS011;29285;52.128;21.060;2022-12-29T15:21:36;11.38;;;5.45;;
43682;SDS011;29285;52.128;21.060;2022-12-29T15:26:42;8.00;;;4.72;;
43682;SDS011;29285;52.128;21.060;2022-12-29T15:31:50;8.40;;;5.03;;
43682;SDS011;29285;52.128;21.060;2022-12-29T15:36:51;7.50;;;4.65;;
43682;SDS011;29285;52.128;21.060;2022-12-29T15:41:56;8.40;;;5.62;;
43682;SDS011;29285;52.128;21.060;2022-12-29T15:47:19;8.13;;;5.12;;
43682;SDS011;29285;52.128;21.060;2022-12-29T15:52:24;7.03;;;4.72;;
43682;SDS011;29285;52.128;21.060;2022-12-29T15:57:26;7.67;;;5.42;;
43682;SDS011;29285;52.128;21.060;2022-12-29T16:02:32;8.93;;;4.92;;
43682;SDS011;29285;52.128;21.060;2022-12-29T16:07:35;8.60;;;5.85;;
43682;SDS011;29285;52.128;21.060;2022-12-29T16:12:36;8.10;;;5.05;;
43682;SDS011;29285;52.128;21.060;2022-12-29T16:17:48;10.60;;;5.72;;
43682;SDS011;29285;52.128;21.060;2022-12-29T16:27:56;11.73;;;6.03;;
43682;SDS011;29285;52.128;21.060;2022-12-29T16:33:01;8.85;;;4.92;;
43682;SDS011;29285;52.128;21.060;2022-12-29T16:38:21;8.20;;;5.37;;
43682;SDS011;29285;52.128;21.060;2022-12-29T16:43:27;7.22;;;5.80;;
43682;SDS011;29285;52.128;21.060;2022-12-29T16:48:35;9.60;;;5.10;;
43682;SDS011;29285;52.128;21.060;2022-12-29T16:53:55;9.38;;;6.10;;
43682;SDS011;29285;52.128;21.060;2022-12-29T16:59:01;9.38;;;5.58;;
43682;SDS011;29285;52.128;21.060;2022-12-29T17:04:07;8.80;;;5.35;;
43682;SDS011;29285;52.128;21.060;2022-12-29T17:14:42;8.33;;;5.17;;
43682;SDS011;29285;52.128;21.060;2022-12-29T17:19:47;7.35;;;4.28;;
43682;SDS011;29285;52.128;21.060;2022-12-29T17:24:55;8.40;;;4.78;;
43682;SDS011;29285;52.128;21.060;2022-12-29T17:35:12;8.45;;;5.40;;
43682;SDS011;29285;52.128;21.060;2022-12-29T17:40:18;8.88;;;5.20;;
43682;SDS011;29285;52.128;21.060;2022-12-29T17:45:26;10.08;;;6.22;;
43682;SDS011;29285;52.128;21.060;2022-12-29T17:50:30;11.97;;;7.17;;
43682;SDS011;29285;52.128;21.060;2022-12-29T17:55:32;9.43;;;5.83;;
43682;SDS011;29285;52.128;21.060;2022-12-29T18:00:35;12.15;;;6.08;;
43682;SDS011;29285;52.128;21.060;2022-12-29T18:05:36;11.95;;;6.20;;
43682;SDS011;29285;52.128;21.060;2022-12-29T18:10:37;12.45;;;7.33;;
43682;SDS011;29285;52.128;21.060;2022-12-29T18:15:39;10.60;;;6.87;;
43682;SDS011;29285;52.128;21.060;2022-12-29T18:20:41;12.03;;;6.35;;
43682;SDS011;29285;52.128;21.060;2022-12-29T18:25:57;11.63;;;6.55;;
43682;SDS011;29285;52.128;21.060;2022-12-29T18:31:01;10.40;;;7.20;;
43682;SDS011;29285;52.128;21.060;2022-12-29T18:36:03;11.33;;;6.65;;
43682;SDS011;29285;52.128;21.060;2022-12-29T18:41:08;10.15;;;6.85;;
43682;SDS011;29285;52.128;21.060;2022-12-29T18:46:17;11.65;;;6.50;;
43682;SDS011;29285;52.128;21.060;2022-12-29T18:51:20;10.48;;;6.25;;
43682;SDS011;29285;52.128;21.060;2022-12-29T18:56:23;10.88;;;6.08;;
43682;SDS011;29285;52.128;21.060;2022-12-29T19:01:25;10.23;;;5.62;;
43682;SDS011;29285;52.128;21.060;2022-12-29T19:06:27;9.05;;;6.55;;
43682;SDS011;29285;52.128;21.060;2022-12-29T19:11:28;11.83;;;6.20;;
43682;SDS011;29285;52.128;21.060;2022-12-29T19:16:30;10.55;;;6.58;;
43682;SDS011;29285;52.128;21.060;2022-12-29T19:21:32;10.40;;;6.58;;
43682;SDS011;29285;52.128;21.060;2022-12-29T19:26:35;9.85;;;6.80;;
43682;SDS011;29285;52.128;21.060;2022-12-29T19:31:38;12.47;;;7.20;;
43682;SDS011;29285;52.128;21.060;2022-12-29T19:36:40;12.60;;;7.12;;
43682;SDS011;29285;52.128;21.060;2022-12-29T19:41:43;11.93;;;6.60;;
43682;SDS011;29285;52.128;21.060;2022-12-29T19:46:44;13.40;;;7.45;;
43682;SDS011;29285;52.128;21.060;2022-12-29T19:51:45;9.38;;;7.20;;
43682;SDS011;29285;52.128;21.060;2022-12-29T19:56:46;12.55;;;7.42;;
43682;SDS011;29285;52.128;21.060;2022-12-29T20:01:48;11.55;;;7.33;;
43682;SDS011;29285;52.128;21.060;2022-12-29T20:06:49;12.75;;;7.15;;
43682;SDS011;29285;52.128;21.060;2022-12-29T20:11:51;14.33;;;8.08;;
43682;SDS011;29285;52.128;21.060;2022-12-29T20:16:52;12.13;;;7.80;;
43682;SDS011;29285;52.128;21.060;2022-12-29T20:21:53;11.93;;;7.37;;
43682;SDS011;29285;52.128;21.060;2022-12-29T20:26:55;10.30;;;6.92;;
43682;SDS011;29285;52.128;21.060;2022-12-29T20:31:56;13.60;;;6.90;;
43682;SDS011;29285;52.128;21.060;2022-12-29T20:36:58;11.68;;;7.22;;
43682;SDS011;29285;52.128;21.060;2022-12-29T20:41:59;10.32;;;6.62;;
43682;SDS011;29285;52.128;21.060;2022-12-29T20:47:01;10.80;;;8.13;;
43682;SDS011;29285;52.128;21.060;2022-12-29T20:52:04;11.08;;;6.83;;
43682;SDS011;29285;52.128;21.060;2022-12-29T20:57:06;13.60;;;6.65;;
43682;SDS011;29285;52.128;21.060;2022-12-29T21:02:21;12.00;;;7.97;;
43682;SDS011;29285;52.128;21.060;2022-12-29T21:07:22;12.73;;;7.37;;
43682;SDS011;29285;52.128;21.060;2022-12-29T21:12:23;12.37;;;6.97;;
43682;SDS011;29285;52.128;21.060;2022-12-29T21:17:24;10.90;;;7.17;;
43682;SDS011;29285;52.128;21.060;2022-12-29T21:22:25;10.25;;;6.15;;
43682;SDS011;29285;52.128;21.060;2022-12-29T21:27:27;13.60;;;8.20;;
43682;SDS011;29285;52.128;21.060;2022-12-29T21:32:28;10.58;;;7.42;;
43682;SDS011;29285;52.128;21.060;2022-12-29T21:37:30;11.73;;;7.55;;
43682;SDS011;29285;52.128;21.060;2022-12-29T21:42:31;12.50;;;7.28;;
43682;SDS011;29285;52.128;21.060;2022-12-29T21:47:33;12.15;;;6.87;;
43682;SDS011;29285;52.128;21.060;2022-12-29T21:52:53;11.95;;;7.33;;
43682;SDS011;29285;52.128;21.060;2022-12-29T21:57:54;11.25;;;6.97;;
43682;SDS011;29285;52.128;21.060;2022-12-29T22:03:13;13.40;;;6.72;;
43682;SDS011;29285;52.128;21.060;2022-12-29T22:08:33;10.28;;;6.90;;
43682;SDS011;29285;52.128;21.060;2022-12-29T22:13:52;10.72;;;7.08;;
43682;SDS011;29285;52.128;21.060;2022-12-29T22:18:56;9.63;;;6.03;;
43682;SDS011;29285;52.128;21.060;2022-12-29T22:23:57;12.15;;;7.00;;
43682;SDS011;29285;52.128;21.060;2022-12-29T22:29:00;12.40;;;7.45;;
43682;SDS011;29285;52.128;21.060;2022-12-29T22:34:01;13.70;;;7.90;;
43682;SDS011;29285;52.128;21.060;2022-12-29T22:39:04;13.80;;;7.83;;
43682;SDS011;29285;52.128;21.060;2022-12-29T22:44:05;12.10;;;7.00;;
43682;SDS011;29285;52.128;21.060;2022-12-29T22:49:06;11.60;;;7.50;;
43682;SDS011;29285;52.128;21.060;2022-12-29T22:54:08;12.73;;;7.72;;
43682;SDS011;29285;52.128;21.060;2022-12-29T22:59:09;9.73;;;6.70;;
43682;SDS011;29285;52.128;21.060;2022-12-29T23:04:12;10.28;;;6.30;;
43682;SDS011;29285;52.128;21.060;2022-12-29T23:09:16;12.60;;;7.55;;
43682;SDS011;29285;52.128;21.060;2022-12-29T23:14:19;10.05;;;6.87;;
43682;SDS011;29285;52.128;21.060;2022-12-29T23:19:21;15.20;;;8.05;;
43682;SDS011;29285;52.128;21.060;2022-12-29T23:24:22;11.45;;;7.17;;
43682;SDS011;29285;52.128;21.060;2022-12-29T23:29:23;11.12;;;6.40;;
43682;SDS011;29285;52.128;21.060;2022-12-29T23:34:24;12.53;;;8.00;;
43682;SDS011;29285;52.128;21.060;2022-12-29T23:39:26;13.48;;;7.50;;
43682;SDS011;29285;52.128;21.060;2022-12-29T23:44:28;10.05;;;6.47;;
43682;SDS011;29285;52.128;21.060;2022-12-29T23:49:30;10.28;;;7.10;;
43682;SDS011;29285;52.128;21.060;2022-12-29T23:54:31;11.68;;;7.55;;
43682;SDS011;29285;52.128;21.060;2022-12-29T23:59:32;11.25;;;6.83;;
